Terminal Aerodrome Forecast
Issued by NWS

Home | Current Version | Previous Version | Text Only | Print | Product List | Glossary On
Versions: 1 2 3 4 5 6 7 8 9 10 11 12 13 14 15 16
000
FTUS45 KTFX 221146
TAFGTF
TAF
KGTF 221146Z 2212/2312 22022G35KT P6SM BKN110 WS020/24050KT
     FM221600 24030G40KT P6SM BKN110
      TEMPO 2219/2222 25042G52KT
     FM230200 25015KT P6SM SCT080 BKN130=

USA.gov is the U.S. government's official web portal to all federal, state and local government web resources and services.